createdAt,value
2018-09-05T00:02:03.834Z,75.10
2018-09-05T00:04:34.003Z,75.30
2018-09-05T00:07:04.427Z,75.40
2018-09-05T00:09:35.824Z,75.10
2018-09-05T00:12:07.758Z,74.80
2018-09-05T00:14:38.015Z,74.80
2018-09-05T00:17:08.378Z,74.60
2018-09-05T00:19:40.404Z,74.80
2018-09-05T00:22:10.540Z,74.70
2018-09-05T00:24:40.741Z,74.70
2018-09-05T00:27:11.229Z,74.40
2018-09-05T00:29:41.487Z,74.40
2018-09-05T00:32:11.635Z,74.60
2018-09-05T00:34:42.131Z,74.70
2018-09-05T00:37:12.477Z,74.40
2018-09-05T00:39:42.648Z,73.60
2018-09-05T00:42:12.964Z,74.30
2018-09-05T00:44:43.605Z,74.20
2018-09-05T00:47:14.972Z,74.10
2018-09-05T00:49:45.218Z,73.90
2018-09-05T00:52:15.434Z,74.00
2018-09-05T00:54:45.770Z,74.30
2018-09-05T00:57:15.948Z,73.80
2018-09-05T00:59:46.299Z,74.40
2018-09-05T01:02:17.154Z,74.90
2018-09-05T01:04:47.671Z,75.10
2018-09-05T01:07:25.405Z,75.00
2018-09-05T01:09:55.596Z,74.90
2018-09-05T01:12:26.274Z,75.10
2018-09-05T01:14:56.695Z,73.60
2018-09-05T01:17:28.306Z,75.90
2018-09-05T01:19:59.579Z,75.50
2018-09-05T01:22:29.715Z,75.50
2018-09-05T01:25:00.182Z,75.50
2018-09-05T01:27:31.589Z,75.20
2018-09-05T01:30:01.778Z,75.10
2018-09-05T01:32:32.354Z,75.30
2018-09-05T01:35:02.739Z,75.70
2018-09-05T01:37:32.948Z,75.70
2018-09-05T01:40:03.940Z,75.50
2018-09-05T01:42:34.341Z,75.70
2018-09-05T01:45:05.411Z,75.50
2018-09-05T01:47:36.575Z,76.30
2018-09-05T01:50:08.488Z,75.70
2018-09-05T01:52:38.922Z,75.40
2018-09-05T01:55:09.395Z,75.50
2018-09-05T01:57:41.031Z,75.30
2018-09-05T02:00:15.761Z,75.40
2018-09-05T02:02:46.012Z,75.80
2018-09-05T02:05:17.203Z,75.70
2018-09-05T02:07:47.825Z,75.60
2018-09-05T02:10:18.065Z,75.80
2018-09-05T02:12:48.310Z,76.50
2018-09-05T02:15:18.488Z,76.10
2018-09-05T02:17:48.606Z,75.80
2018-09-05T02:20:18.759Z,75.80
2018-09-05T02:22:50.472Z,75.70
2018-09-05T02:25:20.690Z,75.50
2018-09-05T02:27:51.314Z,75.60
2018-09-05T02:30:21.591Z,75.50
2018-09-05T02:32:52.939Z,75.70
2018-09-05T02:35:23.115Z,75.70
2018-09-05T02:37:53.274Z,76.00
2018-09-05T02:40:23.536Z,76.10
2018-09-05T02:42:54.129Z,76.20
2018-09-05T02:45:24.464Z,76.20
2018-09-05T02:47:55.571Z,76.80
2018-09-05T02:50:25.820Z,76.70
2018-09-05T02:52:55.988Z,76.80
2018-09-05T02:55:31.434Z,76.80
2018-09-05T02:58:01.567Z,76.90
2018-09-05T03:00:32.697Z,76.80
2018-09-05T03:03:02.891Z,76.70
2018-09-05T03:05:33.872Z,76.60
2018-09-05T03:08:05.401Z,76.70
2018-09-05T03:10:35.616Z,76.60
2018-09-05T03:13:05.798Z,76.60
2018-09-05T03:15:37.168Z,76.40
2018-09-05T03:18:07.371Z,76.30
2018-09-05T03:20:37.561Z,76.20
2018-09-05T03:23:07.967Z,78.10
2018-09-05T03:25:38.301Z,76.10
2018-09-05T03:28:09.292Z,76.10
2018-09-05T03:30:40.978Z,76.20
2018-09-05T03:33:11.243Z,75.90
2018-09-05T03:35:41.438Z,76.00
2018-09-05T03:38:11.915Z,75.50
2018-09-05T03:40:42.027Z,76.10
2018-09-05T03:43:12.145Z,75.90
2018-09-05T03:45:43.207Z,76.10
2018-09-05T03:48:13.343Z,75.90
2018-09-05T03:51:33.703Z,75.70
2018-09-05T03:54:04.032Z,75.80
2018-09-05T03:56:34.594Z,75.90
2018-09-05T03:59:04.878Z,74.00
2018-09-05T04:01:35.078Z,75.70
2018-09-05T04:04:05.712Z,76.00
2018-09-05T04:06:35.978Z,76.50
2018-09-05T04:09:08.938Z,76.70
2018-09-05T04:11:39.409Z,76.10
2018-09-05T04:14:09.576Z,76.30
2018-09-05T04:16:39.685Z,76.60
2018-09-05T04:19:11.183Z,76.70
2018-09-05T04:21:41.531Z,76.50
2018-09-05T04:24:13.210Z,76.40
2018-09-05T04:26:43.750Z,76.30
2018-09-05T04:29:13.946Z,76.30
2018-09-05T04:31:44.095Z,76.30
2018-09-05T04:34:14.527Z,76.60
2018-09-05T04:36:44.751Z,76.40
2018-09-05T04:39:14.987Z,76.90
2018-09-05T04:41:45.747Z,77.00
2018-09-05T04:44:16.988Z,77.10
2018-09-05T04:46:47.091Z,77.20
2018-09-05T04:49:17.831Z,77.00
2018-09-05T04:51:48.159Z,77.10
2018-09-05T04:54:18.893Z,77.20
2018-09-05T04:56:49.553Z,76.00
2018-09-05T04:59:21.424Z,76.80
2018-09-05T05:01:51.667Z,76.60
2018-09-05T05:04:22.483Z,76.20
2018-09-05T05:06:53.476Z,76.20
2018-09-05T05:09:24.581Z,76.10
2018-09-05T05:11:57.962Z,76.00
2018-09-05T05:14:30.056Z,76.40
2018-09-05T05:17:00.537Z,76.30
2018-09-05T05:19:33.341Z,76.10
2018-09-05T05:22:05.089Z,76.00
2018-09-05T05:24:37.787Z,76.00
2018-09-05T05:27:08.400Z,75.60
2018-09-05T05:29:40.135Z,75.20
2018-09-05T05:32:13.261Z,74.60
2018-09-05T05:34:45.234Z,74.10
2018-09-05T05:37:15.908Z,74.20
2018-09-05T05:39:49.463Z,73.60
2018-09-05T05:42:20.173Z,73.20
2018-09-05T05:44:51.650Z,72.90
2018-09-05T05:47:34.734Z,72.60
2018-09-05T05:50:08.411Z,72.00
2018-09-05T05:52:41.416Z,72.20
2018-09-05T05:55:12.151Z,72.10
2018-09-05T05:57:42.439Z,72.10
2018-09-05T06:00:13.140Z,71.90
2018-09-05T06:02:44.312Z,72.10
2018-09-05T06:05:14.738Z,72.10
2018-09-05T06:07:45.019Z,71.90
2018-09-05T06:10:15.840Z,71.70
2018-09-05T06:12:46.503Z,71.70
2018-09-05T06:15:16.798Z,70.70
2018-09-05T06:17:48.223Z,70.70
2018-09-05T06:20:18.599Z,70.00
2018-09-05T06:22:49.409Z,69.80
2018-09-05T06:25:20.462Z,69.20
2018-09-05T06:27:51.659Z,68.70
2018-09-05T06:30:22.818Z,69.10
2018-09-05T06:32:53.357Z,68.80
2018-09-05T06:35:25.641Z,68.20
2018-09-05T06:37:58.750Z,67.40
2018-09-05T06:40:29.867Z,67.00
2018-09-05T06:43:04.048Z,66.40
2018-09-05T06:45:34.456Z,65.90
2018-09-05T06:48:04.966Z,65.10
2018-09-05T06:50:36.055Z,64.70
2018-09-05T06:53:06.641Z,64.20
2018-09-05T06:55:43.079Z,64.00
2018-09-05T06:58:15.777Z,63.90
2018-09-05T07:00:46.504Z,63.20
2018-09-05T07:03:23.061Z,62.60
2018-09-05T07:05:59.009Z,62.40
2018-09-05T07:08:29.485Z,61.30
2018-09-05T07:11:00.518Z,61.20
2018-09-05T07:13:32.296Z,60.90
2018-09-05T07:16:04.539Z,59.70
2018-09-05T07:18:37.132Z,60.00
2018-09-05T07:21:09.525Z,58.60
2018-09-05T07:23:40.742Z,59.60
2018-09-05T07:26:11.357Z,59.60
2018-09-05T07:28:42.917Z,59.40
2018-09-05T07:31:14.060Z,59.60
2018-09-05T07:33:44.931Z,59.70
2018-09-05T07:36:15.209Z,59.80
2018-09-05T07:38:46.936Z,59.80
2018-09-05T07:41:20.298Z,59.50
2018-09-05T07:43:52.331Z,59.40
2018-09-05T07:46:24.756Z,59.40
2018-09-05T07:48:55.297Z,59.20
2018-09-05T07:51:25.891Z,59.10
2018-09-05T07:53:56.422Z,58.80
2018-09-05T07:56:32.252Z,58.80
2018-09-05T07:59:04.223Z,58.50
2018-09-05T08:01:35.264Z,58.40
2018-09-05T08:04:07.076Z,58.40
2018-09-05T08:06:37.831Z,58.20
2018-09-05T08:09:12.380Z,58.00
2018-09-05T08:11:43.239Z,57.80
2018-09-05T08:14:13.931Z,57.60
2018-09-05T08:16:46.916Z,57.70
2018-09-05T08:19:17.847Z,57.30
2018-09-05T08:21:50.621Z,57.40
2018-09-05T08:24:22.036Z,57.30
2018-09-05T08:26:54.471Z,57.50
2018-09-05T08:29:25.355Z,57.40
2018-09-05T08:31:56.384Z,57.90
2018-09-05T08:34:29.746Z,57.50
2018-09-05T08:37:01.868Z,57.30
2018-09-05T08:39:32.417Z,56.80
2018-09-05T08:42:10.614Z,57.50
2018-09-05T08:44:41.511Z,57.10
2018-09-05T08:47:11.857Z,56.70
2018-09-05T08:49:43.527Z,57.20
2018-09-05T08:52:14.027Z,56.80
2018-09-05T08:54:45.446Z,57.70
2018-09-05T08:57:16.938Z,58.00
2018-09-05T08:59:47.591Z,58.00
2018-09-05T09:02:19.951Z,57.70
2018-09-05T09:04:52.224Z,57.50
2018-09-05T09:07:23.376Z,57.10
2018-09-05T09:09:53.960Z,56.90
2018-09-05T09:12:25.495Z,57.10
2018-09-05T09:14:56.896Z,56.80
2018-09-05T09:17:27.720Z,56.90
2018-09-05T09:20:00.457Z,57.40
2018-09-05T09:22:31.525Z,58.40
2018-09-05T09:25:08.204Z,58.60
2018-09-05T09:27:38.717Z,58.00
2018-09-05T09:30:13.182Z,57.50
2018-09-05T09:32:44.405Z,57.00
2018-09-05T09:35:15.595Z,57.40
2018-09-05T09:37:51.443Z,57.30
2018-09-05T09:40:26.099Z,57.50
2018-09-05T09:42:59.226Z,57.30
2018-09-05T09:45:30.250Z,57.80
2018-09-05T09:48:07.410Z,57.00
2018-09-05T09:50:38.926Z,56.20
2018-09-05T09:53:12.100Z,56.10
2018-09-05T09:55:44.053Z,55.20
2018-09-05T09:58:15.094Z,55.20
2018-09-05T10:00:51.582Z,54.80
2018-09-05T10:03:28.728Z,54.60
2018-09-05T10:06:05.547Z,54.80
2018-09-05T10:10:44.147Z,55.40
2018-09-05T10:13:19.600Z,56.00
2018-09-05T10:15:55.643Z,57.10
2018-09-05T10:18:29.926Z,57.20
2018-09-05T10:21:04.295Z,56.60
2018-09-05T10:23:36.554Z,55.80
2018-09-05T10:26:08.570Z,55.70
2018-09-05T10:28:40.487Z,55.60
2018-09-05T10:31:12.943Z,54.50
2018-09-05T10:33:44.957Z,53.60
2018-09-05T10:36:15.531Z,53.70
2018-09-05T10:38:48.759Z,53.70
2018-09-05T10:41:19.452Z,53.40
2018-09-05T10:43:50.372Z,53.60
2018-09-05T10:46:21.697Z,53.00
2018-09-05T10:48:52.323Z,52.40
2018-09-05T10:52:30.543Z,52.30
2018-09-05T10:55:03.600Z,52.90
2018-09-05T10:57:35.860Z,54.30
2018-09-05T11:00:12.008Z,53.60
2018-09-05T11:02:43.396Z,54.00
2018-09-05T11:05:18.781Z,53.80
2018-09-05T11:07:52.237Z,52.30
2018-09-05T11:10:23.031Z,52.00
2018-09-05T11:12:55.115Z,53.40
2018-09-05T11:15:26.047Z,52.50
2018-09-05T11:17:57.917Z,53.00
2018-09-05T11:20:28.993Z,53.00
2018-09-05T11:23:00.208Z,51.20
2018-09-05T11:25:33.315Z,52.10
2018-09-05T11:28:04.744Z,52.50
2018-09-05T11:30:39.011Z,50.70
2018-09-05T11:33:10.427Z,51.10
2018-09-05T11:35:42.549Z,49.90
2018-09-05T11:38:16.519Z,50.60
2018-09-05T11:40:47.662Z,52.00
2018-09-05T11:43:23.268Z,51.50
2018-09-05T11:45:55.274Z,50.60
2018-09-05T11:48:27.044Z,50.30
2018-09-05T11:51:00.382Z,50.10
2018-09-05T11:53:32.581Z,50.00
2018-09-05T11:56:05.717Z,49.40
2018-09-05T11:58:38.831Z,49.00
2018-09-05T12:01:11.008Z,49.20
2018-09-05T12:03:44.018Z,50.10
2018-09-05T12:06:18.520Z,50.10
2018-09-05T12:08:49.971Z,50.60
2018-09-05T12:11:20.899Z,51.80
2018-09-05T12:13:56.869Z,50.80
2018-09-05T12:16:30.450Z,50.60
2018-09-05T12:19:05.312Z,50.60
2018-09-05T12:21:38.996Z,50.60
2018-09-05T12:24:10.421Z,49.60
2018-09-05T12:26:41.495Z,50.70
2018-09-05T12:29:14.409Z,52.20
2018-09-05T12:31:45.270Z,51.20
2018-09-05T12:34:17.374Z,50.50
2018-09-05T12:36:48.333Z,50.90
2018-09-05T12:39:21.276Z,50.50
2018-09-05T12:41:53.798Z,50.00
2018-09-05T12:44:26.900Z,49.90
2018-09-05T12:47:00.900Z,50.20
2018-09-05T12:49:31.928Z,50.10
2018-09-05T12:52:04.824Z,49.50
2018-09-05T12:54:35.773Z,49.10
2018-09-05T12:57:09.869Z,48.70
2018-09-05T12:59:46.661Z,48.90
2018-09-05T13:02:19.841Z,49.40
2018-09-05T13:04:57.481Z,49.70
2018-09-05T13:07:29.662Z,49.00
2018-09-05T13:10:03.729Z,49.50
2018-09-05T13:12:38.196Z,48.80
2018-09-05T13:15:11.411Z,48.50
2018-09-05T13:17:44.239Z,50.10
2018-09-05T13:20:17.757Z,48.50
2018-09-05T13:22:49.908Z,49.20
2018-09-05T13:25:23.388Z,48.60
2018-09-05T13:27:54.219Z,49.60
2018-09-05T13:30:27.145Z,49.50
2018-09-05T13:32:58.352Z,49.50
2018-09-05T13:35:33.843Z,49.20
2018-09-05T13:38:05.329Z,48.80
2018-09-05T13:40:38.314Z,48.50
2018-09-05T13:43:09.338Z,48.80
2018-09-05T13:45:42.301Z,48.00
2018-09-05T13:48:13.858Z,48.20
2018-09-05T13:50:45.243Z,48.40
2018-09-05T13:53:20.959Z,47.40
2018-09-05T13:55:52.589Z,47.70
2018-09-05T13:58:24.241Z,47.30
2018-09-05T14:00:56.469Z,48.30
2018-09-05T14:03:28.140Z,47.20
2018-09-05T14:06:08.666Z,46.70
2018-09-05T14:08:39.614Z,46.80
2018-09-05T14:11:12.885Z,46.60
2018-09-05T14:13:45.456Z,47.70
2018-09-05T14:16:16.839Z,47.20
2018-09-05T14:18:47.520Z,47.80
2018-09-05T14:21:23.693Z,47.40
2018-09-05T14:23:56.643Z,47.20
2018-09-05T14:26:27.675Z,47.30
2018-09-05T14:29:00.493Z,47.10
2018-09-05T14:31:33.191Z,47.90
2018-09-05T14:34:05.782Z,48.10
2018-09-05T14:36:40.780Z,48.00
2018-09-05T14:39:13.570Z,48.00
2018-09-05T14:41:45.092Z,48.30
2018-09-05T14:44:16.751Z,48.00
2018-09-05T14:46:48.745Z,48.20
2018-09-05T14:49:20.762Z,48.30
2018-09-05T14:51:53.603Z,48.90
2018-09-05T14:54:24.649Z,48.90
2018-09-05T14:56:56.219Z,48.80
2018-09-05T14:59:30.612Z,49.70
2018-09-05T15:02:03.861Z,49.10
2018-09-05T15:04:36.107Z,48.20
2018-09-05T15:07:15.883Z,48.20
2018-09-05T15:09:47.484Z,48.30
2018-09-05T15:12:21.021Z,48.70
2018-09-05T15:14:55.220Z,49.00
2018-09-05T15:17:28.423Z,48.80
2018-09-05T15:20:01.009Z,49.10
2018-09-05T15:22:34.695Z,48.90
2018-09-05T15:25:22.581Z,48.60
2018-09-05T15:27:53.818Z,49.90
2018-09-05T15:30:26.216Z,50.20
2018-09-05T15:32:57.423Z,52.50
2018-09-05T15:35:28.309Z,54.00
2018-09-05T15:38:04.874Z,54.20
2018-09-05T15:43:33.747Z,53.80
2018-09-05T15:46:10.406Z,55.20
2018-09-05T15:48:46.157Z,54.60
2018-09-05T15:51:27.295Z,54.30
2018-09-05T15:54:06.389Z,54.20
2018-09-05T15:56:45.676Z,53.70
2018-09-05T15:59:23.746Z,52.80
2018-09-05T16:02:04.311Z,53.60
2018-09-05T16:04:46.499Z,54.20
2018-09-05T16:10:11.626Z,57.50
2018-09-05T16:12:48.972Z,58.00
2018-09-05T16:15:29.909Z,59.60
2018-09-05T16:18:08.534Z,61.30
2018-09-05T16:20:42.338Z,62.90
2018-09-05T16:23:19.947Z,64.20
2018-09-05T16:25:59.095Z,64.60
2018-09-05T16:28:33.951Z,64.60
2018-09-05T16:31:12.234Z,63.50
2018-09-05T16:33:46.740Z,64.10
2018-09-05T16:36:25.245Z,64.90
2018-09-05T16:38:59.842Z,66.80
2018-09-05T16:41:36.267Z,67.00
2018-09-05T16:44:16.936Z,67.40
2018-09-05T16:46:55.010Z,67.40
2018-09-05T16:49:37.458Z,68.00
2018-09-05T16:52:19.723Z,68.30
2018-09-05T16:54:56.446Z,69.00
2018-09-05T16:57:33.988Z,69.80
2018-09-05T17:00:25.359Z,69.80
2018-09-05T17:03:04.553Z,69.90
2018-09-05T17:05:39.491Z,69.30
2018-09-05T17:08:17.971Z,69.40
2018-09-05T17:10:51.793Z,69.30
2018-09-05T17:13:29.322Z,69.80
2018-09-05T17:16:07.077Z,70.00
2018-09-05T17:18:40.557Z,71.50
2018-09-05T17:21:14.436Z,70.80
2018-09-05T17:23:47.225Z,73.20
2018-09-05T17:26:24.747Z,76.50
2018-09-05T17:29:05.399Z,77.70
2018-09-05T17:31:46.848Z,79.10
2018-09-05T17:34:28.242Z,78.70
2018-09-05T17:37:16.088Z,79.50
2018-09-05T17:39:55.220Z,79.20
2018-09-05T17:42:30.938Z,77.90
2018-09-05T17:48:14.115Z,75.10
2018-09-05T17:50:55.995Z,74.70
2018-09-05T17:53:41.855Z,75.00
2018-09-05T17:59:37.352Z,75.10
2018-09-05T18:02:09.230Z,74.60
2018-09-05T18:04:44.884Z,75.00
2018-09-05T18:07:26.707Z,74.00
2018-09-05T18:10:05.085Z,74.00
2018-09-05T18:12:45.639Z,74.20
2018-09-05T18:15:27.564Z,74.80
2018-09-05T18:18:07.833Z,77.10
2018-09-05T18:20:43.959Z,77.00
2018-09-05T18:23:33.135Z,77.80
2018-09-05T18:26:16.920Z,76.80
2018-09-05T18:28:53.929Z,76.60
2018-09-05T18:31:31.308Z,76.30
2018-09-05T18:34:12.217Z,75.30
2018-09-05T18:36:48.213Z,74.80
2018-09-05T18:42:09.898Z,74.60
2018-09-05T18:44:49.442Z,74.20
2018-09-05T18:47:32.956Z,74.20
2018-09-05T18:50:17.700Z,74.10
2018-09-05T18:53:01.672Z,74.40
2018-09-05T18:55:40.949Z,75.80
2018-09-05T18:58:30.407Z,74.30
2018-09-05T19:01:07.606Z,74.80
2018-09-05T19:03:47.076Z,74.50
2018-09-05T19:12:48.776Z,74.50
2018-09-05T19:15:22.313Z,74.10
2018-09-05T19:17:56.229Z,75.00
2018-09-05T19:20:29.810Z,74.60
2018-09-05T19:23:06.253Z,75.50
2018-09-05T19:28:28.849Z,74.70
2018-09-05T19:31:05.905Z,74.70
2018-09-05T19:33:47.547Z,74.40
2018-09-05T19:36:27.308Z,74.50
2018-09-05T19:39:09.952Z,74.50
2018-09-05T19:41:46.054Z,74.50
2018-09-05T19:44:19.509Z,74.20
2018-09-05T19:46:54.903Z,74.50
2018-09-05T19:49:39.373Z,74.40
2018-09-05T19:52:17.787Z,74.90
2018-09-05T19:54:53.894Z,76.00
2018-09-05T19:57:36.311Z,75.20
2018-09-05T20:03:00.515Z,75.40
2018-09-05T20:05:42.088Z,74.90
2018-09-05T20:11:05.273Z,75.30
2018-09-05T20:13:40.375Z,75.00
2018-09-05T20:16:18.889Z,75.10
2018-09-05T20:19:03.115Z,75.40
2018-09-05T20:21:40.044Z,75.80
2018-09-05T20:24:27.262Z,78.00
2018-09-05T20:31:37.191Z,77.70
2018-09-05T20:34:26.185Z,77.10
2018-09-05T20:39:44.840Z,76.20
2018-09-05T20:42:24.671Z,75.80
2018-09-05T20:44:59.569Z,76.20
2018-09-05T20:47:36.713Z,76.90
2018-09-05T20:50:17.503Z,77.80
2018-09-05T20:52:53.689Z,77.60
2018-09-05T20:55:32.966Z,76.80
2018-09-05T20:58:10.813Z,77.20
2018-09-05T21:00:45.370Z,76.40
2018-09-05T21:03:24.811Z,77.90
2018-09-05T21:06:04.331Z,79.60
2018-09-05T21:11:22.562Z,78.70
2018-09-05T21:13:56.392Z,77.80
2018-09-05T21:16:30.029Z,79.50
2018-09-05T21:19:18.902Z,78.30
2018-09-05T21:21:54.327Z,79.60
2018-09-05T21:24:27.687Z,77.90
2018-09-05T21:27:05.506Z,78.20
2018-09-05T21:29:41.575Z,79.10
2018-09-05T21:32:18.703Z,80.70
2018-09-05T21:34:57.347Z,81.30
2018-09-05T21:37:31.951Z,82.00
2018-09-05T21:40:19.136Z,83.40
2018-09-05T21:42:58.207Z,83.30
2018-09-05T21:48:33.020Z,82.80
2018-09-05T21:51:09.720Z,82.20
2018-09-05T21:53:47.299Z,81.70
2018-09-05T21:56:20.776Z,80.90
2018-09-05T21:58:55.837Z,79.80
2018-09-05T22:01:36.216Z,79.90
2018-09-05T22:04:14.261Z,80.50
2018-09-05T22:06:47.267Z,79.40
2018-09-05T22:09:19.865Z,79.20
2018-09-05T22:11:55.577Z,79.20
2018-09-05T22:14:30.034Z,78.40
2018-09-05T22:17:17.420Z,78.60
2018-09-05T22:19:57.078Z,78.30
2018-09-05T22:22:34.265Z,79.20
2018-09-05T22:25:34.346Z,79.80
2018-09-05T22:28:12.252Z,80.00
2018-09-05T22:30:45.510Z,79.30
2018-09-05T22:33:18.547Z,78.90
2018-09-05T22:35:53.687Z,79.00
2018-09-05T22:38:26.800Z,80.30
2018-09-05T22:41:07.179Z,79.60
2018-09-05T22:43:49.387Z,79.50
2018-09-05T22:46:31.236Z,79.30
2018-09-05T22:49:16.914Z,79.50
2018-09-05T22:52:00.264Z,79.40
2018-09-05T22:54:59.437Z,79.20
2018-09-05T23:07:05.403Z,79.40
2018-09-05T23:09:48.996Z,79.10
2018-09-05T23:14:35.937Z,82.20
2018-09-05T23:17:22.051Z,81.00
2018-09-05T23:20:09.945Z,80.50
2018-09-05T23:22:53.499Z,80.20
2018-09-05T23:25:29.541Z,79.70
2018-09-05T23:30:39.064Z,78.60
2018-09-05T23:33:17.101Z,79.60
2018-09-05T23:35:48.803Z,79.40
2018-09-05T23:38:19.947Z,79.40
2018-09-05T23:40:51.177Z,79.10
2018-09-05T23:43:24.359Z,78.50
2018-09-05T23:45:55.460Z,78.50
2018-09-05T23:48:28.866Z,78.80
2018-09-05T23:51:00.725Z,78.30
2018-09-05T23:53:36.832Z,78.70
2018-09-05T23:56:08.427Z,78.90
2018-09-05T23:58:42.638Z,78.40
